sensor_id;sensor_type;location;lat;lon;timestamp;P1;durP1;ratioP1;P2;durP2;ratioP2
62941;SDS011;49042;47.318;19.874;2022-12-16T00:01:16;53.33;;;18.70;;
62941;SDS011;49042;47.318;19.874;2022-12-16T00:04:19;58.40;;;18.58;;
62941;SDS011;49042;47.318;19.874;2022-12-16T00:07:21;67.57;;;18.85;;
62941;SDS011;49042;47.318;19.874;2022-12-16T00:10:23;48.00;;;19.15;;
62941;SDS011;49042;47.318;19.874;2022-12-16T00:13:25;45.97;;;18.45;;
62941;SDS011;49042;47.318;19.874;2022-12-16T00:16:27;46.55;;;17.35;;
62941;SDS011;49042;47.318;19.874;2022-12-16T00:19:29;53.60;;;19.37;;
62941;SDS011;49042;47.318;19.874;2022-12-16T00:22:31;47.78;;;19.37;;
62941;SDS011;49042;47.318;19.874;2022-12-16T00:25:33;45.90;;;19.55;;
62941;SDS011;49042;47.318;19.874;2022-12-16T00:28:35;50.47;;;18.85;;
62941;SDS011;49042;47.318;19.874;2022-12-16T00:31:37;43.25;;;17.80;;
62941;SDS011;49042;47.318;19.874;2022-12-16T00:34:39;38.03;;;16.73;;
62941;SDS011;49042;47.318;19.874;2022-12-16T00:37:41;46.55;;;19.23;;
62941;SDS011;49042;47.318;19.874;2022-12-16T00:40:43;37.35;;;17.33;;
62941;SDS011;49042;47.318;19.874;2022-12-16T00:43:44;36.00;;;16.45;;
62941;SDS011;49042;47.318;19.874;2022-12-16T00:46:46;40.50;;;17.42;;
62941;SDS011;49042;47.318;19.874;2022-12-16T00:49:48;41.22;;;18.42;;
62941;SDS011;49042;47.318;19.874;2022-12-16T00:52:49;38.20;;;16.83;;
62941;SDS011;49042;47.318;19.874;2022-12-16T00:56:00;45.58;;;18.95;;
62941;SDS011;49042;47.318;19.874;2022-12-16T00:59:03;47.72;;;18.45;;
62941;SDS011;49042;47.318;19.874;2022-12-16T01:02:04;42.03;;;17.27;;
62941;SDS011;49042;47.318;19.874;2022-12-16T01:05:07;39.35;;;18.27;;
62941;SDS011;49042;47.318;19.874;2022-12-16T01:08:10;41.60;;;17.98;;
62941;SDS011;49042;47.318;19.874;2022-12-16T01:11:11;34.95;;;16.73;;
62941;SDS011;49042;47.318;19.874;2022-12-16T01:14:13;39.92;;;17.98;;
62941;SDS011;49042;47.318;19.874;2022-12-16T01:17:15;40.40;;;17.65;;
62941;SDS011;49042;47.318;19.874;2022-12-16T01:20:16;43.35;;;17.27;;
62941;SDS011;49042;47.318;19.874;2022-12-16T01:23:18;39.97;;;17.42;;
62941;SDS011;49042;47.318;19.874;2022-12-16T01:26:20;39.35;;;18.20;;
62941;SDS011;49042;47.318;19.874;2022-12-16T01:29:21;41.80;;;17.62;;
62941;SDS011;49042;47.318;19.874;2022-12-16T01:32:23;38.42;;;16.95;;
62941;SDS011;49042;47.318;19.874;2022-12-16T01:35:25;48.67;;;19.23;;
62941;SDS011;49042;47.318;19.874;2022-12-16T01:38:47;40.58;;;17.25;;
62941;SDS011;49042;47.318;19.874;2022-12-16T01:41:48;37.28;;;18.23;;
62941;SDS011;49042;47.318;19.874;2022-12-16T01:44:50;34.97;;;17.60;;
62941;SDS011;49042;47.318;19.874;2022-12-16T01:47:56;33.88;;;16.20;;
62941;SDS011;49042;47.318;19.874;2022-12-16T01:51:13;38.72;;;16.45;;
62941;SDS011;49042;47.318;19.874;2022-12-16T01:54:24;32.58;;;16.70;;
62941;SDS011;49042;47.318;19.874;2022-12-16T01:57:37;33.60;;;16.35;;
62941;SDS011;49042;47.318;19.874;2022-12-16T02:00:47;32.55;;;15.85;;
62941;SDS011;49042;47.318;19.874;2022-12-16T02:03:49;31.52;;;16.00;;
62941;SDS011;49042;47.318;19.874;2022-12-16T02:06:54;29.55;;;15.32;;
62941;SDS011;49042;47.318;19.874;2022-12-16T02:09:56;35.88;;;15.68;;
62941;SDS011;49042;47.318;19.874;2022-12-16T02:13:02;27.10;;;15.05;;
62941;SDS011;49042;47.318;19.874;2022-12-16T02:30:28;28.50;;;14.00;;
62941;SDS011;49042;47.318;19.874;2022-12-16T02:42:40;28.12;;;13.75;;
62941;SDS011;49042;47.318;19.874;2022-12-16T02:45:52;23.27;;;13.50;;
62941;SDS011;49042;47.318;19.874;2022-12-16T02:48:54;27.10;;;14.05;;
62941;SDS011;49042;47.318;19.874;2022-12-16T02:51:57;31.33;;;14.25;;
62941;SDS011;49042;47.318;19.874;2022-12-16T02:55:01;25.95;;;14.05;;
62941;SDS011;49042;47.318;19.874;2022-12-16T02:58:09;25.95;;;14.43;;
62941;SDS011;49042;47.318;19.874;2022-12-16T03:04:32;33.45;;;16.83;;
62941;SDS011;49042;47.318;19.874;2022-12-16T03:07:39;28.08;;;15.55;;
62941;SDS011;49042;47.318;19.874;2022-12-16T03:10:44;32.15;;;15.27;;
62941;SDS011;49042;47.318;19.874;2022-12-16T03:13:51;32.10;;;16.92;;
62941;SDS011;49042;47.318;19.874;2022-12-16T03:16:55;33.97;;;17.23;;
62941;SDS011;49042;47.318;19.874;2022-12-16T03:20:03;35.90;;;17.62;;
62941;SDS011;49042;47.318;19.874;2022-12-16T03:23:12;36.60;;;19.25;;
62941;SDS011;49042;47.318;19.874;2022-12-16T03:26:19;35.77;;;18.77;;
62941;SDS011;49042;47.318;19.874;2022-12-16T03:35:43;39.35;;;19.42;;
62941;SDS011;49042;47.318;19.874;2022-12-16T03:38:50;46.08;;;21.67;;
62941;SDS011;49042;47.318;19.874;2022-12-16T03:41:53;35.53;;;18.80;;
62941;SDS011;49042;47.318;19.874;2022-12-16T03:44:56;49.35;;;21.98;;
62941;SDS011;49042;47.318;19.874;2022-12-16T03:47:58;46.15;;;20.40;;
62941;SDS011;49042;47.318;19.874;2022-12-16T03:51:00;40.80;;;18.92;;
62941;SDS011;49042;47.318;19.874;2022-12-16T03:54:02;51.35;;;22.98;;
62941;SDS011;49042;47.318;19.874;2022-12-16T03:57:04;40.83;;;20.08;;
62941;SDS011;49042;47.318;19.874;2022-12-16T04:00:10;50.72;;;23.25;;
62941;SDS011;49042;47.318;19.874;2022-12-16T04:03:13;42.90;;;20.45;;
62941;SDS011;49042;47.318;19.874;2022-12-16T04:06:14;40.15;;;21.05;;
62941;SDS011;49042;47.318;19.874;2022-12-16T04:09:18;38.58;;;18.98;;
62941;SDS011;49042;47.318;19.874;2022-12-16T04:12:20;44.20;;;19.80;;
62941;SDS011;49042;47.318;19.874;2022-12-16T04:15:41;33.35;;;17.67;;
62941;SDS011;49042;47.318;19.874;2022-12-16T04:19:01;36.60;;;18.05;;
62941;SDS011;49042;47.318;19.874;2022-12-16T04:22:26;38.67;;;18.67;;
62941;SDS011;49042;47.318;19.874;2022-12-16T04:25:49;46.33;;;20.67;;
62941;SDS011;49042;47.318;19.874;2022-12-16T04:28:51;43.75;;;18.83;;
62941;SDS011;49042;47.318;19.874;2022-12-16T04:31:52;39.97;;;17.58;;
62941;SDS011;49042;47.318;19.874;2022-12-16T04:34:54;33.40;;;17.27;;
62941;SDS011;49042;47.318;19.874;2022-12-16T04:37:56;38.20;;;18.17;;
62941;SDS011;49042;47.318;19.874;2022-12-16T04:41:16;33.47;;;17.30;;
62941;SDS011;49042;47.318;19.874;2022-12-16T04:44:36;42.75;;;20.98;;
62941;SDS011;49042;47.318;19.874;2022-12-16T04:47:57;59.42;;;25.45;;
62941;SDS011;49042;47.318;19.874;2022-12-16T04:51:17;57.25;;;22.90;;
62941;SDS011;49042;47.318;19.874;2022-12-16T04:54:37;43.00;;;21.98;;
62941;SDS011;49042;47.318;19.874;2022-12-16T04:57:58;48.83;;;22.08;;
62941;SDS011;49042;47.318;19.874;2022-12-16T05:01:20;69.78;;;29.08;;
62941;SDS011;49042;47.318;19.874;2022-12-16T05:04:41;71.78;;;28.17;;
62941;SDS011;49042;47.318;19.874;2022-12-16T05:08:01;67.20;;;32.22;;
62941;SDS011;49042;47.318;19.874;2022-12-16T05:11:21;55.38;;;25.45;;
62941;SDS011;49042;47.318;19.874;2022-12-16T05:14:41;51.53;;;24.58;;
62941;SDS011;49042;47.318;19.874;2022-12-16T05:18:11;57.72;;;27.00;;
62941;SDS011;49042;47.318;19.874;2022-12-16T05:21:32;63.47;;;26.00;;
62941;SDS011;49042;47.318;19.874;2022-12-16T05:24:53;52.60;;;23.90;;
62941;SDS011;49042;47.318;19.874;2022-12-16T05:28:13;52.83;;;24.12;;
62941;SDS011;49042;47.318;19.874;2022-12-16T05:31:33;62.28;;;25.30;;
62941;SDS011;49042;47.318;19.874;2022-12-16T05:34:53;49.33;;;23.65;;
62941;SDS011;49042;47.318;19.874;2022-12-16T05:38:14;45.47;;;21.33;;
62941;SDS011;49042;47.318;19.874;2022-12-16T05:41:34;65.68;;;27.85;;
62941;SDS011;49042;47.318;19.874;2022-12-16T05:44:54;47.53;;;20.70;;
62941;SDS011;49042;47.318;19.874;2022-12-16T05:48:14;45.22;;;22.70;;
62941;SDS011;49042;47.318;19.874;2022-12-16T05:51:34;43.97;;;19.95;;
62941;SDS011;49042;47.318;19.874;2022-12-16T05:54:54;58.97;;;24.27;;
62941;SDS011;49042;47.318;19.874;2022-12-16T05:58:14;65.32;;;27.95;;
62941;SDS011;49042;47.318;19.874;2022-12-16T06:01:34;59.20;;;25.77;;
62941;SDS011;49042;47.318;19.874;2022-12-16T06:04:55;74.22;;;29.45;;
62941;SDS011;49042;47.318;19.874;2022-12-16T06:08:15;58.83;;;24.33;;
62941;SDS011;49042;47.318;19.874;2022-12-16T06:11:35;56.97;;;24.83;;
62941;SDS011;49042;47.318;19.874;2022-12-16T06:14:56;85.40;;;24.20;;
62941;SDS011;49042;47.318;19.874;2022-12-16T06:18:16;63.90;;;23.50;;
62941;SDS011;49042;47.318;19.874;2022-12-16T06:21:37;55.92;;;22.98;;
62941;SDS011;49042;47.318;19.874;2022-12-16T06:24:57;72.37;;;23.67;;
62941;SDS011;49042;47.318;19.874;2022-12-16T06:28:17;62.10;;;23.92;;
62941;SDS011;49042;47.318;19.874;2022-12-16T06:31:41;74.60;;;27.58;;
62941;SDS011;49042;47.318;19.874;2022-12-16T06:35:01;74.60;;;25.95;;
62941;SDS011;49042;47.318;19.874;2022-12-16T06:38:22;70.40;;;25.45;;
62941;SDS011;49042;47.318;19.874;2022-12-16T06:41:42;66.65;;;25.15;;
62941;SDS011;49042;47.318;19.874;2022-12-16T06:45:02;61.30;;;24.30;;
62941;SDS011;49042;47.318;19.874;2022-12-16T06:48:23;48.92;;;22.60;;
62941;SDS011;49042;47.318;19.874;2022-12-16T06:51:43;55.67;;;22.85;;
62941;SDS011;49042;47.318;19.874;2022-12-16T06:55:03;55.55;;;21.55;;
62941;SDS011;49042;47.318;19.874;2022-12-16T06:58:23;46.65;;;23.42;;
62941;SDS011;49042;47.318;19.874;2022-12-16T07:01:44;51.08;;;24.33;;
62941;SDS011;49042;47.318;19.874;2022-12-16T07:05:04;60.83;;;31.17;;
62941;SDS011;49042;47.318;19.874;2022-12-16T07:08:24;53.95;;;24.48;;
62941;SDS011;49042;47.318;19.874;2022-12-16T07:11:45;48.97;;;22.00;;
62941;SDS011;49042;47.318;19.874;2022-12-16T07:15:05;56.60;;;23.52;;
62941;SDS011;49042;47.318;19.874;2022-12-16T07:18:26;48.03;;;21.30;;
62941;SDS011;49042;47.318;19.874;2022-12-16T07:21:46;52.03;;;23.75;;
62941;SDS011;49042;47.318;19.874;2022-12-16T07:25:06;47.47;;;21.55;;
62941;SDS011;49042;47.318;19.874;2022-12-16T07:28:27;48.00;;;20.58;;
62941;SDS011;49042;47.318;19.874;2022-12-16T07:31:47;48.70;;;21.23;;
62941;SDS011;49042;47.318;19.874;2022-12-16T07:35:08;43.35;;;19.92;;
62941;SDS011;49042;47.318;19.874;2022-12-16T07:38:28;40.30;;;19.73;;
62941;SDS011;49042;47.318;19.874;2022-12-16T07:41:48;45.15;;;21.12;;
62941;SDS011;49042;47.318;19.874;2022-12-16T07:45:08;41.88;;;19.90;;
62941;SDS011;49042;47.318;19.874;2022-12-16T07:48:29;41.03;;;20.25;;
62941;SDS011;49042;47.318;19.874;2022-12-16T07:51:49;49.83;;;23.08;;
62941;SDS011;49042;47.318;19.874;2022-12-16T07:55:09;41.88;;;19.87;;
62941;SDS011;49042;47.318;19.874;2022-12-16T07:58:29;36.95;;;18.40;;
62941;SDS011;49042;47.318;19.874;2022-12-16T08:01:50;34.45;;;18.48;;
62941;SDS011;49042;47.318;19.874;2022-12-16T08:05:10;33.65;;;18.40;;
62941;SDS011;49042;47.318;19.874;2022-12-16T08:08:31;35.33;;;17.85;;
62941;SDS011;49042;47.318;19.874;2022-12-16T08:12:02;28.92;;;17.50;;
62941;SDS011;49042;47.318;19.874;2022-12-16T08:15:22;35.17;;;18.90;;
62941;SDS011;49042;47.318;19.874;2022-12-16T08:18:42;36.10;;;19.35;;
62941;SDS011;49042;47.318;19.874;2022-12-16T08:22:11;43.40;;;21.98;;
62941;SDS011;49042;47.318;19.874;2022-12-16T08:25:30;38.08;;;21.58;;
62941;SDS011;49042;47.318;19.874;2022-12-16T08:28:51;41.70;;;23.30;;
62941;SDS011;49042;47.318;19.874;2022-12-16T08:32:31;48.08;;;25.95;;
62941;SDS011;49042;47.318;19.874;2022-12-16T08:35:59;43.33;;;23.60;;
62941;SDS011;49042;47.318;19.874;2022-12-16T08:39:19;39.47;;;21.83;;
62941;SDS011;49042;47.318;19.874;2022-12-16T08:42:39;42.13;;;24.45;;
62941;SDS011;49042;47.318;19.874;2022-12-16T08:46:00;39.97;;;24.85;;
62941;SDS011;49042;47.318;19.874;2022-12-16T08:49:20;31.67;;;19.52;;
62941;SDS011;49042;47.318;19.874;2022-12-16T08:52:41;41.55;;;22.50;;
62941;SDS011;49042;47.318;19.874;2022-12-16T08:56:01;36.50;;;20.40;;
62941;SDS011;49042;47.318;19.874;2022-12-16T08:59:22;33.00;;;18.90;;
62941;SDS011;49042;47.318;19.874;2022-12-16T09:02:42;31.75;;;20.08;;
62941;SDS011;49042;47.318;19.874;2022-12-16T09:06:02;37.35;;;22.00;;
62941;SDS011;49042;47.318;19.874;2022-12-16T09:09:22;32.90;;;18.83;;
62941;SDS011;49042;47.318;19.874;2022-12-16T09:12:43;31.52;;;19.40;;
62941;SDS011;49042;47.318;19.874;2022-12-16T09:16:03;50.70;;;30.77;;
62941;SDS011;49042;47.318;19.874;2022-12-16T09:19:23;43.33;;;25.62;;
62941;SDS011;49042;47.318;19.874;2022-12-16T09:22:44;38.38;;;21.60;;
62941;SDS011;49042;47.318;19.874;2022-12-16T09:26:04;31.27;;;18.12;;
62941;SDS011;49042;47.318;19.874;2022-12-16T09:29:25;35.85;;;21.40;;
62941;SDS011;49042;47.318;19.874;2022-12-16T09:32:45;34.30;;;20.00;;
62941;SDS011;49042;47.318;19.874;2022-12-16T09:36:05;29.65;;;19.05;;
62941;SDS011;49042;47.318;19.874;2022-12-16T09:39:26;31.62;;;20.33;;
62941;SDS011;49042;47.318;19.874;2022-12-16T09:42:50;32.28;;;19.98;;
62941;SDS011;49042;47.318;19.874;2022-12-16T09:46:48;44.67;;;24.83;;
62941;SDS011;49042;47.318;19.874;2022-12-16T09:50:22;38.67;;;23.23;;
62941;SDS011;49042;47.318;19.874;2022-12-16T09:53:45;27.70;;;17.10;;
62941;SDS011;49042;47.318;19.874;2022-12-16T09:57:09;32.53;;;19.62;;
62941;SDS011;49042;47.318;19.874;2022-12-16T10:00:30;31.77;;;20.02;;
62941;SDS011;49042;47.318;19.874;2022-12-16T10:03:51;31.75;;;19.25;;
62941;SDS011;49042;47.318;19.874;2022-12-16T10:07:16;31.23;;;20.02;;
62941;SDS011;49042;47.318;19.874;2022-12-16T10:11:42;33.35;;;20.20;;
62941;SDS011;49042;47.318;19.874;2022-12-16T10:17:51;42.03;;;24.60;;
62941;SDS011;49042;47.318;19.874;2022-12-16T10:21:14;36.30;;;20.73;;
62941;SDS011;49042;47.318;19.874;2022-12-16T10:24:44;40.65;;;24.65;;
62941;SDS011;49042;47.318;19.874;2022-12-16T10:28:18;38.00;;;22.45;;
